sensor_id;sensor_type;location;lat;lon;timestamp;temperature;humidity
4755;DHT22;2391;47.212;7.542;2022-12-16T00:01:14;4.30;99.90
4755;DHT22;2391;47.212;7.542;2022-12-16T00:03:32;4.30;99.90
4755;DHT22;2391;47.212;7.542;2022-12-16T00:05:58;4.30;99.90
4755;DHT22;2391;47.212;7.542;2022-12-16T00:08:23;4.40;99.90
4755;DHT22;2391;47.212;7.542;2022-12-16T00:10:49;4.50;99.90
4755;DHT22;2391;47.212;7.542;2022-12-16T00:13:18;4.50;99.90
4755;DHT22;2391;47.212;7.542;2022-12-16T00:15:44;4.50;99.90
4755;DHT22;2391;47.212;7.542;2022-12-16T00:18:12;4.30;99.90
4755;DHT22;2391;47.212;7.542;2022-12-16T00:20:44;4.30;99.90
4755;DHT22;2391;47.212;7.542;2022-12-16T00:23:10;4.30;99.90
4755;DHT22;2391;47.212;7.542;2022-12-16T00:25:36;4.30;99.90
4755;DHT22;2391;47.212;7.542;2022-12-16T00:28:02;4.40;99.90
4755;DHT22;2391;47.212;7.542;2022-12-16T00:30:27;4.40;99.90
4755;DHT22;2391;47.212;7.542;2022-12-16T00:32:53;4.50;99.90
4755;DHT22;2391;47.212;7.542;2022-12-16T00:35:19;4.60;99.90
4755;DHT22;2391;47.212;7.542;2022-12-16T00:37:46;4.60;99.90
4755;DHT22;2391;47.212;7.542;2022-12-16T00:40:12;4.60;99.90
4755;DHT22;2391;47.212;7.542;2022-12-16T00:42:38;4.60;99.90
4755;DHT22;2391;47.212;7.542;2022-12-16T00:45:04;4.60;99.90
4755;DHT22;2391;47.212;7.542;2022-12-16T00:47:30;4.50;99.90
4755;DHT22;2391;47.212;7.542;2022-12-16T00:49:56;4.50;99.90
4755;DHT22;2391;47.212;7.542;2022-12-16T00:52:21;4.40;99.90
4755;DHT22;2391;47.212;7.542;2022-12-16T00:54:47;4.20;99.90
4755;DHT22;2391;47.212;7.542;2022-12-16T00:57:13;4.10;99.90
4755;DHT22;2391;47.212;7.542;2022-12-16T00:59:38;4.10;99.90
4755;DHT22;2391;47.212;7.542;2022-12-16T01:02:04;4.10;99.90
4755;DHT22;2391;47.212;7.542;2022-12-16T01:04:30;4.10;99.90
4755;DHT22;2391;47.212;7.542;2022-12-16T01:06:56;4.10;99.90
4755;DHT22;2391;47.212;7.542;2022-12-16T01:09:21;4.10;99.90
4755;DHT22;2391;47.212;7.542;2022-12-16T01:11:47;4.20;99.90
4755;DHT22;2391;47.212;7.542;2022-12-16T01:14:13;4.20;99.90
4755;DHT22;2391;47.212;7.542;2022-12-16T01:16:39;4.20;99.90
4755;DHT22;2391;47.212;7.542;2022-12-16T01:19:05;4.30;99.90
4755;DHT22;2391;47.212;7.542;2022-12-16T01:21:30;4.30;99.90
4755;DHT22;2391;47.212;7.542;2022-12-16T01:23:56;4.30;99.90
4755;DHT22;2391;47.212;7.542;2022-12-16T01:26:22;4.30;99.90
4755;DHT22;2391;47.212;7.542;2022-12-16T01:28:49;4.30;99.90
4755;DHT22;2391;47.212;7.542;2022-12-16T01:31:17;4.30;99.90
4755;DHT22;2391;47.212;7.542;2022-12-16T01:33:43;4.40;99.90
4755;DHT22;2391;47.212;7.542;2022-12-16T01:36:09;4.40;99.90
4755;DHT22;2391;47.212;7.542;2022-12-16T01:38:35;4.40;99.90
4755;DHT22;2391;47.212;7.542;2022-12-16T01:41:02;4.50;99.90
4755;DHT22;2391;47.212;7.542;2022-12-16T01:43:34;4.50;99.90
4755;DHT22;2391;47.212;7.542;2022-12-16T01:46:07;4.50;99.90
4755;DHT22;2391;47.212;7.542;2022-12-16T01:51:12;4.60;99.90
4755;DHT22;2391;47.212;7.542;2022-12-16T01:53:36;4.60;99.90
4755;DHT22;2391;47.212;7.542;2022-12-16T01:56:03;4.60;99.90
4755;DHT22;2391;47.212;7.542;2022-12-16T01:58:32;4.60;99.90
4755;DHT22;2391;47.212;7.542;2022-12-16T02:00:59;4.60;99.90
4755;DHT22;2391;47.212;7.542;2022-12-16T02:03:29;4.70;99.90
4755;DHT22;2391;47.212;7.542;2022-12-16T02:05:55;4.70;99.90
4755;DHT22;2391;47.212;7.542;2022-12-16T02:08:23;4.70;99.90
4755;DHT22;2391;47.212;7.542;2022-12-16T02:13:48;4.80;99.90
4755;DHT22;2391;47.212;7.542;2022-12-16T02:16:39;4.90;99.90
4755;DHT22;2391;47.212;7.542;2022-12-16T02:33:15;4.90;99.80
4755;DHT22;2391;47.212;7.542;2022-12-16T02:38:32;4.90;99.70
4755;DHT22;2391;47.212;7.542;2022-12-16T02:41:08;4.80;99.80
4755;DHT22;2391;47.212;7.542;2022-12-16T02:43:40;4.80;99.90
4755;DHT22;2391;47.212;7.542;2022-12-16T02:46:04;4.80;99.60
4755;DHT22;2391;47.212;7.542;2022-12-16T02:48:30;4.80;99.60
4755;DHT22;2391;47.212;7.542;2022-12-16T02:50:56;4.80;99.50
4755;DHT22;2391;47.212;7.542;2022-12-16T02:53:23;4.80;99.60
4755;DHT22;2391;47.212;7.542;2022-12-16T02:56:05;4.80;99.50
4755;DHT22;2391;47.212;7.542;2022-12-16T03:01:16;4.70;99.50
4755;DHT22;2391;47.212;7.542;2022-12-16T03:03:53;4.70;99.40
4755;DHT22;2391;47.212;7.542;2022-12-16T03:06:18;4.70;99.40
4755;DHT22;2391;47.212;7.542;2022-12-16T03:08:47;4.60;99.40
4755;DHT22;2391;47.212;7.542;2022-12-16T03:11:13;4.60;99.50
4755;DHT22;2391;47.212;7.542;2022-12-16T03:13:42;4.60;99.50
4755;DHT22;2391;47.212;7.542;2022-12-16T03:16:11;4.60;99.50
4755;DHT22;2391;47.212;7.542;2022-12-16T03:18:41;4.70;99.50
4755;DHT22;2391;47.212;7.542;2022-12-16T03:21:08;4.70;99.40
4755;DHT22;2391;47.212;7.542;2022-12-16T03:23:47;4.70;99.40
4755;DHT22;2391;47.212;7.542;2022-12-16T03:26:15;4.70;99.30
4755;DHT22;2391;47.212;7.542;2022-12-16T03:28:51;4.70;99.30
4755;DHT22;2391;47.212;7.542;2022-12-16T03:34:00;4.60;99.30
4755;DHT22;2391;47.212;7.542;2022-12-16T03:36:26;4.60;99.50
4755;DHT22;2391;47.212;7.542;2022-12-16T03:38:56;4.60;99.40
4755;DHT22;2391;47.212;7.542;2022-12-16T03:41:22;4.70;99.50
4755;DHT22;2391;47.212;7.542;2022-12-16T03:43:49;4.70;99.30
4755;DHT22;2391;47.212;7.542;2022-12-16T03:46:16;4.70;99.40
4755;DHT22;2391;47.212;7.542;2022-12-16T03:48:50;4.60;99.30
4755;DHT22;2391;47.212;7.542;2022-12-16T03:51:13;4.60;99.40
4755;DHT22;2391;47.212;7.542;2022-12-16T03:53:40;4.60;99.40
4755;DHT22;2391;47.212;7.542;2022-12-16T03:56:06;4.50;99.40
4755;DHT22;2391;47.212;7.542;2022-12-16T03:58:32;4.50;99.40
4755;DHT22;2391;47.212;7.542;2022-12-16T04:01:00;4.50;99.40
4755;DHT22;2391;47.212;7.542;2022-12-16T04:03:26;4.50;99.40
4755;DHT22;2391;47.212;7.542;2022-12-16T04:05:52;4.50;99.50
4755;DHT22;2391;47.212;7.542;2022-12-16T04:08:18;4.50;99.40
4755;DHT22;2391;47.212;7.542;2022-12-16T04:10:44;4.50;99.40
4755;DHT22;2391;47.212;7.542;2022-12-16T04:13:28;4.60;99.40
4755;DHT22;2391;47.212;7.542;2022-12-16T04:16:16;4.60;99.40
4755;DHT22;2391;47.212;7.542;2022-12-16T04:19:01;4.60;99.30
4755;DHT22;2391;47.212;7.542;2022-12-16T04:21:46;4.60;99.30
4755;DHT22;2391;47.212;7.542;2022-12-16T04:24:31;4.60;99.30
4755;DHT22;2391;47.212;7.542;2022-12-16T04:26:58;4.60;99.30
4755;DHT22;2391;47.212;7.542;2022-12-16T04:29:42;4.60;99.20
4755;DHT22;2391;47.212;7.542;2022-12-16T04:32:28;4.70;99.20
4755;DHT22;2391;47.212;7.542;2022-12-16T04:34:59;4.70;99.20
4755;DHT22;2391;47.212;7.542;2022-12-16T04:37:26;4.70;99.10
4755;DHT22;2391;47.212;7.542;2022-12-16T04:40:11;4.70;99.20
4755;DHT22;2391;47.212;7.542;2022-12-16T04:42:54;4.70;99.20
4755;DHT22;2391;47.212;7.542;2022-12-16T04:45:39;4.70;99.10
4755;DHT22;2391;47.212;7.542;2022-12-16T04:48:23;4.70;99.10
4755;DHT22;2391;47.212;7.542;2022-12-16T04:51:07;4.60;99.10
4755;DHT22;2391;47.212;7.542;2022-12-16T04:53:51;4.60;99.10
4755;DHT22;2391;47.212;7.542;2022-12-16T04:56:35;4.60;99.10
4755;DHT22;2391;47.212;7.542;2022-12-16T04:59:20;4.50;99.10
4755;DHT22;2391;47.212;7.542;2022-12-16T05:02:04;4.50;99.30
4755;DHT22;2391;47.212;7.542;2022-12-16T05:04:48;4.40;99.20
4755;DHT22;2391;47.212;7.542;2022-12-16T05:07:32;4.40;99.30
4755;DHT22;2391;47.212;7.542;2022-12-16T05:10:16;4.40;99.30
4755;DHT22;2391;47.212;7.542;2022-12-16T05:13:00;4.40;99.40
4755;DHT22;2391;47.212;7.542;2022-12-16T05:15:44;4.40;99.40
4755;DHT22;2391;47.212;7.542;2022-12-16T05:18:28;4.40;99.40
4755;DHT22;2391;47.212;7.542;2022-12-16T05:21:02;4.40;99.40
4755;DHT22;2391;47.212;7.542;2022-12-16T05:23:47;4.40;99.30
4755;DHT22;2391;47.212;7.542;2022-12-16T05:26:31;4.40;99.40
4755;DHT22;2391;47.212;7.542;2022-12-16T05:29:16;4.40;99.30
4755;DHT22;2391;47.212;7.542;2022-12-16T05:32:00;4.50;99.30
4755;DHT22;2391;47.212;7.542;2022-12-16T05:34:44;4.50;99.20
4755;DHT22;2391;47.212;7.542;2022-12-16T05:37:28;4.50;99.20
4755;DHT22;2391;47.212;7.542;2022-12-16T05:40:13;4.40;99.30
4755;DHT22;2391;47.212;7.542;2022-12-16T05:42:57;4.40;99.30
4755;DHT22;2391;47.212;7.542;2022-12-16T05:45:41;4.40;99.50
4755;DHT22;2391;47.212;7.542;2022-12-16T05:48:25;4.40;99.40
4755;DHT22;2391;47.212;7.542;2022-12-16T05:51:13;4.30;99.40
4755;DHT22;2391;47.212;7.542;2022-12-16T05:53:57;4.40;99.50
4755;DHT22;2391;47.212;7.542;2022-12-16T05:56:41;4.40;99.50
4755;DHT22;2391;47.212;7.542;2022-12-16T05:59:25;4.40;99.60
4755;DHT22;2391;47.212;7.542;2022-12-16T06:02:09;4.40;99.50
4755;DHT22;2391;47.212;7.542;2022-12-16T06:04:54;4.30;99.30
4755;DHT22;2391;47.212;7.542;2022-12-16T06:07:38;4.10;99.40
4755;DHT22;2391;47.212;7.542;2022-12-16T06:10:22;4.10;99.50
4755;DHT22;2391;47.212;7.542;2022-12-16T06:13:06;4.00;99.70
4755;DHT22;2391;47.212;7.542;2022-12-16T06:15:50;4.00;99.80
4755;DHT22;2391;47.212;7.542;2022-12-16T06:18:35;4.00;99.70
4755;DHT22;2391;47.212;7.542;2022-12-16T06:21:19;4.00;99.70
4755;DHT22;2391;47.212;7.542;2022-12-16T06:24:04;3.90;99.70
4755;DHT22;2391;47.212;7.542;2022-12-16T06:26:49;3.90;99.80
4755;DHT22;2391;47.212;7.542;2022-12-16T06:29:33;4.00;99.80
4755;DHT22;2391;47.212;7.542;2022-12-16T06:32:17;4.00;99.90
4755;DHT22;2391;47.212;7.542;2022-12-16T06:35:01;4.00;99.80
4755;DHT22;2391;47.212;7.542;2022-12-16T06:37:46;4.00;99.80
4755;DHT22;2391;47.212;7.542;2022-12-16T06:40:31;4.00;99.80
4755;DHT22;2391;47.212;7.542;2022-12-16T06:43:15;4.10;99.80
4755;DHT22;2391;47.212;7.542;2022-12-16T06:45:59;4.10;99.70
4755;DHT22;2391;47.212;7.542;2022-12-16T06:48:43;4.10;99.60
4755;DHT22;2391;47.212;7.542;2022-12-16T06:51:28;4.10;99.70
4755;DHT22;2391;47.212;7.542;2022-12-16T06:54:12;4.00;99.70
4755;DHT22;2391;47.212;7.542;2022-12-16T06:56:56;4.00;99.70
4755;DHT22;2391;47.212;7.542;2022-12-16T06:59:40;4.00;99.70
4755;DHT22;2391;47.212;7.542;2022-12-16T07:02:26;4.00;99.70
4755;DHT22;2391;47.212;7.542;2022-12-16T07:05:10;3.90;99.80
4755;DHT22;2391;47.212;7.542;2022-12-16T07:07:55;3.80;99.90
4755;DHT22;2391;47.212;7.542;2022-12-16T07:10:39;3.80;99.90
4755;DHT22;2391;47.212;7.542;2022-12-16T07:13:24;3.70;99.90
4755;DHT22;2391;47.212;7.542;2022-12-16T07:16:08;3.70;99.90
4755;DHT22;2391;47.212;7.542;2022-12-16T07:18:52;3.70;99.90
4755;DHT22;2391;47.212;7.542;2022-12-16T07:21:36;3.60;99.90
4755;DHT22;2391;47.212;7.542;2022-12-16T07:24:23;3.50;99.90
4755;DHT22;2391;47.212;7.542;2022-12-16T07:27:08;3.50;99.90
4755;DHT22;2391;47.212;7.542;2022-12-16T07:29:52;3.50;99.90
4755;DHT22;2391;47.212;7.542;2022-12-16T07:32:36;3.50;99.90
4755;DHT22;2391;47.212;7.542;2022-12-16T07:35:20;3.50;99.90
4755;DHT22;2391;47.212;7.542;2022-12-16T07:38:04;3.50;99.90
4755;DHT22;2391;47.212;7.542;2022-12-16T07:40:49;3.50;99.90
4755;DHT22;2391;47.212;7.542;2022-12-16T07:43:33;3.50;99.90
4755;DHT22;2391;47.212;7.542;2022-12-16T07:46:17;3.50;99.90
4755;DHT22;2391;47.212;7.542;2022-12-16T07:49:01;3.50;99.90
4755;DHT22;2391;47.212;7.542;2022-12-16T07:51:45;3.40;99.90
4755;DHT22;2391;47.212;7.542;2022-12-16T07:54:29;3.30;99.90
4755;DHT22;2391;47.212;7.542;2022-12-16T07:57:14;3.10;99.90
4755;DHT22;2391;47.212;7.542;2022-12-16T07:59:58;3.00;99.90
4755;DHT22;2391;47.212;7.542;2022-12-16T08:02:42;2.90;99.90
4755;DHT22;2391;47.212;7.542;2022-12-16T08:05:26;2.90;99.90
4755;DHT22;2391;47.212;7.542;2022-12-16T08:08:11;2.90;99.90
4755;DHT22;2391;47.212;7.542;2022-12-16T08:10:55;2.90;99.90
4755;DHT22;2391;47.212;7.542;2022-12-16T08:13:39;3.00;99.90
4755;DHT22;2391;47.212;7.542;2022-12-16T08:16:23;3.00;99.90
4755;DHT22;2391;47.212;7.542;2022-12-16T08:19:08;3.00;99.90
4755;DHT22;2391;47.212;7.542;2022-12-16T08:21:52;3.00;99.90
4755;DHT22;2391;47.212;7.542;2022-12-16T08:24:36;3.00;99.90
4755;DHT22;2391;47.212;7.542;2022-12-16T08:27:20;3.00;99.90
4755;DHT22;2391;47.212;7.542;2022-12-16T08:30:05;3.10;99.90
4755;DHT22;2391;47.212;7.542;2022-12-16T08:32:50;3.20;99.90
4755;DHT22;2391;47.212;7.542;2022-12-16T08:35:34;3.20;99.90
4755;DHT22;2391;47.212;7.542;2022-12-16T08:38:18;3.30;99.90
4755;DHT22;2391;47.212;7.542;2022-12-16T08:41:02;3.30;99.90
4755;DHT22;2391;47.212;7.542;2022-12-16T08:43:46;3.30;99.90
4755;DHT22;2391;47.212;7.542;2022-12-16T08:46:30;3.10;99.90
4755;DHT22;2391;47.212;7.542;2022-12-16T08:49:14;3.00;99.90
4755;DHT22;2391;47.212;7.542;2022-12-16T08:51:58;2.90;99.90
4755;DHT22;2391;47.212;7.542;2022-12-16T08:54:43;2.80;99.90
4755;DHT22;2391;47.212;7.542;2022-12-16T08:57:27;2.80;99.90
4755;DHT22;2391;47.212;7.542;2022-12-16T09:00:12;2.80;99.90
4755;DHT22;2391;47.212;7.542;2022-12-16T09:02:58;2.80;99.90
4755;DHT22;2391;47.212;7.542;2022-12-16T09:05:43;2.80;99.90
4755;DHT22;2391;47.212;7.542;2022-12-16T09:08:28;2.80;99.90
4755;DHT22;2391;47.212;7.542;2022-12-16T09:11:13;2.90;99.90
4755;DHT22;2391;47.212;7.542;2022-12-16T09:13:57;2.90;99.90
4755;DHT22;2391;47.212;7.542;2022-12-16T09:16:42;2.80;99.90
4755;DHT22;2391;47.212;7.542;2022-12-16T09:19:26;2.90;99.90
4755;DHT22;2391;47.212;7.542;2022-12-16T09:22:10;2.90;99.90
4755;DHT22;2391;47.212;7.542;2022-12-16T09:24:54;3.00;99.90
4755;DHT22;2391;47.212;7.542;2022-12-16T09:27:38;3.00;99.90
4755;DHT22;2391;47.212;7.542;2022-12-16T09:30:22;2.90;99.90
4755;DHT22;2391;47.212;7.542;2022-12-16T09:33:06;3.00;99.90
4755;DHT22;2391;47.212;7.542;2022-12-16T09:35:51;3.10;99.90
4755;DHT22;2391;47.212;7.542;2022-12-16T09:38:35;3.10;99.90
4755;DHT22;2391;47.212;7.542;2022-12-16T09:50:40;3.30;99.90
4755;DHT22;2391;47.212;7.542;2022-12-16T09:53:27;3.30;99.90
4755;DHT22;2391;47.212;7.542;2022-12-16T09:56:16;3.30;99.90
4755;DHT22;2391;47.212;7.542;2022-12-16T09:59:09;3.20;99.90
4755;DHT22;2391;47.212;7.542;2022-12-16T10:01:52;2.90;99.90
4755;DHT22;2391;47.212;7.542;2022-12-16T10:04:36;2.70;99.90
4755;DHT22;2391;47.212;7.542;2022-12-16T10:07:21;2.50;99.90
4755;DHT22;2391;47.212;7.542;2022-12-16T10:10:29;2.50;99.90
4755;DHT22;2391;47.212;7.542;2022-12-16T10:17:37;2.70;99.90
4755;DHT22;2391;47.212;7.542;2022-12-16T10:19:56;2.70;99.90
4755;DHT22;2391;47.212;7.542;2022-12-16T10:23:04;2.80;99.90
4755;DHT22;2391;47.212;7.542;2022-12-16T10:25:52;2.80;99.90
4755;DHT22;2391;47.212;7.542;2022-12-16T10:28:47;2.90;99.90
4755;DHT22;2391;47.212;7.542;2022-12-16T10:31:32;3.00;99.90
4755;DHT22;2391;47.212;7.542;2022-12-16T10:34:19;2.90;99.90
4755;DHT22;2391;47.212;7.542;2022-12-16T10:37:04;2.80;99.90
4755;DHT22;2391;47.212;7.542;2022-12-16T10:39:56;2.80;99.90
4755;DHT22;2391;47.212;7.542;2022-12-16T10:42:46;2.80;99.90
4755;DHT22;2391;47.212;7.542;2022-12-16T10:45:39;2.80;99.90
4755;DHT22;2391;47.212;7.542;2022-12-16T10:48:28;2.90;99.90
4755;DHT22;2391;47.212;7.542;2022-12-16T10:51:17;2.90;99.90
4755;DHT22;2391;47.212;7.542;2022-12-16T11:00:37;2.80;99.90
4755;DHT22;2391;47.212;7.542;2022-12-16T11:03:18;2.80;99.90
4755;DHT22;2391;47.212;7.542;2022-12-16T11:06:04;2.90;99.90
4755;DHT22;2391;47.212;7.542;2022-12-16T11:08:48;2.90;99.90
4755;DHT22;2391;47.212;7.542;2022-12-16T11:11:33;2.90;99.90
4755;DHT22;2391;47.212;7.542;2022-12-16T11:14:29;2.90;99.90
4755;DHT22;2391;47.212;7.542;2022-12-16T11:17:19;2.80;99.90
4755;DHT22;2391;47.212;7.542;2022-12-16T11:26:18;2.60;99.90
4755;DHT22;2391;47.212;7.542;2022-12-16T11:29:12;2.60;99.90
4755;DHT22;2391;47.212;7.542;2022-12-16T11:32:04;2.60;99.90
4755;DHT22;2391;47.212;7.542;2022-12-16T11:34:53;2.50;99.90
4755;DHT22;2391;47.212;7.542;2022-12-16T11:37:40;2.60;99.90
4755;DHT22;2391;47.212;7.542;2022-12-16T11:40:27;2.60;99.90
4755;DHT22;2391;47.212;7.542;2022-12-16T11:43:14;2.60;99.90
4755;DHT22;2391;47.212;7.542;2022-12-16T11:45:55;2.70;99.90
4755;DHT22;2391;47.212;7.542;2022-12-16T11:48:43;2.80;99.90
4755;DHT22;2391;47.212;7.542;2022-12-16T11:51:31;2.80;99.90
4755;DHT22;2391;47.212;7.542;2022-12-16T11:54:37;2.90;99.90
4755;DHT22;2391;47.212;7.542;2022-12-16T11:57:23;2.90;99.90
4755;DHT22;2391;47.212;7.542;2022-12-16T12:00:16;2.90;99.90
4755;DHT22;2391;47.212;7.542;2022-12-16T12:03:06;2.90;99.90
4755;DHT22;2391;47.212;7.542;2022-12-16T12:06:04;2.80;99.90
4755;DHT22;2391;47.212;7.542;2022-12-16T12:09:15;2.80;99.90
4755;DHT22;2391;47.212;7.542;2022-12-16T12:12:18;2.80;99.90
4755;DHT22;2391;47.212;7.542;2022-12-16T12:15:09;2.70;99.90
4755;DHT22;2391;47.212;7.542;2022-12-16T12:24:08;2.90;99.90
4755;DHT22;2391;47.212;7.542;2022-12-16T12:30:05;2.90;99.90
4755;DHT22;2391;47.212;7.542;2022-12-16T12:36:05;2.90;99.90
4755;DHT22;2391;47.212;7.542;2022-12-16T12:39:21;2.90;99.90
4755;DHT22;2391;47.212;7.542;2022-12-16T12:48:14;2.70;99.90
4755;DHT22;2391;47.212;7.542;2022-12-16T12:51:13;2.60;99.90
4755;DHT22;2391;47.212;7.542;2022-12-16T12:57:05;2.50;99.90
4755;DHT22;2391;47.212;7.542;2022-12-16T13:00:03;2.40;99.90
4755;DHT22;2391;47.212;7.542;2022-12-16T13:05:53;2.50;99.90
4755;DHT22;2391;47.212;7.542;2022-12-16T13:08:45;2.60;99.90
4755;DHT22;2391;47.212;7.542;2022-12-16T13:11:28;2.60;99.90
4755;DHT22;2391;47.212;7.542;2022-12-16T13:17:21;2.70;99.90
4755;DHT22;2391;47.212;7.542;2022-12-16T13:23:31;2.80;99.90
4755;DHT22;2391;47.212;7.542;2022-12-16T13:26:17;2.80;99.90
4755;DHT22;2391;47.212;7.542;2022-12-16T13:29:30;2.70;99.90
4755;DHT22;2391;47.212;7.542;2022-12-16T13:32:18;2.70;99.90
4755;DHT22;2391;47.212;7.542;2022-12-16T13:40:59;3.30;99.90
4755;DHT22;2391;47.212;7.542;2022-12-16T13:46:47;3.60;99.90
4755;DHT22;2391;47.212;7.542;2022-12-16T13:52:53;3.60;99.80
4755;DHT22;2391;47.212;7.542;2022-12-16T13:55:57;3.50;99.80
4755;DHT22;2391;47.212;7.542;2022-12-16T13:58:44;3.50;99.90
4755;DHT22;2391;47.212;7.542;2022-12-16T14:01:42;3.50;99.60
4755;DHT22;2391;47.212;7.542;2022-12-16T14:04:35;3.40;99.90
4755;DHT22;2391;47.212;7.542;2022-12-16T14:07:22;3.50;99.80
4755;DHT22;2391;47.212;7.542;2022-12-16T14:13:27;3.70;99.80
4755;DHT22;2391;47.212;7.542;2022-12-16T14:25:19;3.80;99.10
4755;DHT22;2391;47.212;7.542;2022-12-16T14:31:20;3.40;99.10
4755;DHT22;2391;47.212;7.542;2022-12-16T14:34:04;3.00;99.30
4755;DHT22;2391;47.212;7.542;2022-12-16T14:36:50;2.80;99.90
4755;DHT22;2391;47.212;7.542;2022-12-16T14:39:38;2.60;99.90
4755;DHT22;2391;47.212;7.542;2022-12-16T14:42:30;2.60;99.90
4755;DHT22;2391;47.212;7.542;2022-12-16T14:45:30;2.70;99.90
4755;DHT22;2391;47.212;7.542;2022-12-16T14:48:27;2.70;99.90
4755;DHT22;2391;47.212;7.542;2022-12-16T14:56:59;2.70;99.90
4755;DHT22;2391;47.212;7.542;2022-12-16T14:59:43;2.70;99.90
4755;DHT22;2391;47.212;7.542;2022-12-16T15:02:34;2.70;99.90
4755;DHT22;2391;47.212;7.542;2022-12-16T15:05:21;2.50;99.90
4755;DHT22;2391;47.212;7.542;2022-12-16T15:08:10;2.40;99.90
4755;DHT22;2391;47.212;7.542;2022-12-16T15:10:54;2.30;99.90
4755;DHT22;2391;47.212;7.542;2022-12-16T15:13:39;2.30;99.90
4755;DHT22;2391;47.212;7.542;2022-12-16T15:16:30;2.40;99.90
4755;DHT22;2391;47.212;7.542;2022-12-16T15:19:18;2.40;99.90
4755;DHT22;2391;47.212;7.542;2022-12-16T15:22:03;2.40;99.90
4755;DHT22;2391;47.212;7.542;2022-12-16T15:24:47;2.30;99.90
4755;DHT22;2391;47.212;7.542;2022-12-16T15:27:36;2.20;99.90
4755;DHT22;2391;47.212;7.542;2022-12-16T15:36:33;1.70;99.90
4755;DHT22;2391;47.212;7.542;2022-12-16T15:39:25;1.70;99.90
4755;DHT22;2391;47.212;7.542;2022-12-16T15:42:21;1.70;99.90
4755;DHT22;2391;47.212;7.542;2022-12-16T15:45:22;1.70;99.90
4755;DHT22;2391;47.212;7.542;2022-12-16T15:48:19;1.70;99.90
4755;DHT22;2391;47.212;7.542;2022-12-16T15:54:22;1.90;99.90
4755;DHT22;2391;47.212;7.542;2022-12-16T16:00:27;2.00;99.90
4755;DHT22;2391;47.212;7.542;2022-12-16T16:03:28;2.00;99.90
4755;DHT22;2391;47.212;7.542;2022-12-16T16:06:16;2.00;99.90
4755;DHT22;2391;47.212;7.542;2022-12-16T16:11:58;1.90;99.90
4755;DHT22;2391;47.212;7.542;2022-12-16T16:14:42;1.90;99.90
4755;DHT22;2391;47.212;7.542;2022-12-16T16:17:26;2.00;99.90
4755;DHT22;2391;47.212;7.542;2022-12-16T16:20:16;2.10;99.70
4755;DHT22;2391;47.212;7.542;2022-12-16T16:23:01;2.20;99.60
4755;DHT22;2391;47.212;7.542;2022-12-16T16:25:46;2.30;99.80
4755;DHT22;2391;47.212;7.542;2022-12-16T16:28:31;2.40;99.60
4755;DHT22;2391;47.212;7.542;2022-12-16T16:31:16;2.60;99.40
4755;DHT22;2391;47.212;7.542;2022-12-16T16:34:00;2.80;99.10
4755;DHT22;2391;47.212;7.542;2022-12-16T16:36:51;2.90;98.90
4755;DHT22;2391;47.212;7.542;2022-12-16T16:39:35;3.00;98.90
4755;DHT22;2391;47.212;7.542;2022-12-16T16:42:20;3.20;98.70
4755;DHT22;2391;47.212;7.542;2022-12-16T16:45:07;3.40;98.40
4755;DHT22;2391;47.212;7.542;2022-12-16T16:48:10;3.40;97.60
4755;DHT22;2391;47.212;7.542;2022-12-16T16:50:56;3.20;97.00
4755;DHT22;2391;47.212;7.542;2022-12-16T16:53:41;3.00;97.30
4755;DHT22;2391;47.212;7.542;2022-12-16T16:56:10;3.00;97.60
4755;DHT22;2391;47.212;7.542;2022-12-16T16:58:55;3.20;97.20
4755;DHT22;2391;47.212;7.542;2022-12-16T17:01:40;3.10;96.90
4755;DHT22;2391;47.212;7.542;2022-12-16T17:04:24;3.10;97.20
4755;DHT22;2391;47.212;7.542;2022-12-16T17:07:08;3.20;97.30
4755;DHT22;2391;47.212;7.542;2022-12-16T17:09:53;3.30;97.10
4755;DHT22;2391;47.212;7.542;2022-12-16T17:12:40;3.40;96.90
4755;DHT22;2391;47.212;7.542;2022-12-16T17:15:33;3.60;96.70
4755;DHT22;2391;47.212;7.542;2022-12-16T17:18:19;3.60;96.40
4755;DHT22;2391;47.212;7.542;2022-12-16T17:21:04;3.70;96.40
4755;DHT22;2391;47.212;7.542;2022-12-16T17:23:50;3.70;96.30
4755;DHT22;2391;47.212;7.542;2022-12-16T17:26:43;3.80;96.10
4755;DHT22;2391;47.212;7.542;2022-12-16T17:29:28;3.90;96.10
4755;DHT22;2391;47.212;7.542;2022-12-16T17:32:13;4.00;96.00
4755;DHT22;2391;47.212;7.542;2022-12-16T17:34:58;4.00;96.00
4755;DHT22;2391;47.212;7.542;2022-12-16T17:37:43;4.10;96.00
4755;DHT22;2391;47.212;7.542;2022-12-16T17:40:28;4.10;96.00
4755;DHT22;2391;47.212;7.542;2022-12-16T17:43:13;4.20;95.90
4755;DHT22;2391;47.212;7.542;2022-12-16T17:46:03;4.20;96.00
4755;DHT22;2391;47.212;7.542;2022-12-16T17:48:52;4.20;96.10
4755;DHT22;2391;47.212;7.542;2022-12-16T17:51:38;4.10;96.10
4755;DHT22;2391;47.212;7.542;2022-12-16T17:54:23;4.10;96.30
4755;DHT22;2391;47.212;7.542;2022-12-16T17:57:08;4.00;96.40
4755;DHT22;2391;47.212;7.542;2022-12-16T17:59:52;3.90;96.30
4755;DHT22;2391;47.212;7.542;2022-12-16T18:02:36;3.90;96.50
4755;DHT22;2391;47.212;7.542;2022-12-16T18:05:20;3.90;96.20
4755;DHT22;2391;47.212;7.542;2022-12-16T18:08:05;3.80;96.00
4755;DHT22;2391;47.212;7.542;2022-12-16T18:10:54;3.60;96.40
4755;DHT22;2391;47.212;7.542;2022-12-16T18:13:39;3.60;96.40
4755;DHT22;2391;47.212;7.542;2022-12-16T18:16:24;3.70;96.60
4755;DHT22;2391;47.212;7.542;2022-12-16T18:19:13;3.70;96.60
4755;DHT22;2391;47.212;7.542;2022-12-16T18:21:59;3.70;96.40
4755;DHT22;2391;47.212;7.542;2022-12-16T18:24:44;3.60;95.90
4755;DHT22;2391;47.212;7.542;2022-12-16T18:27:29;3.40;95.80
4755;DHT22;2391;47.212;7.542;2022-12-16T18:30:14;3.30;95.50
4755;DHT22;2391;47.212;7.542;2022-12-16T18:32:59;3.20;95.40
4755;DHT22;2391;47.212;7.542;2022-12-16T18:35:45;3.10;95.40
4755;DHT22;2391;47.212;7.542;2022-12-16T18:38:30;3.00;95.10
4755;DHT22;2391;47.212;7.542;2022-12-16T18:41:17;2.80;95.30
4755;DHT22;2391;47.212;7.542;2022-12-16T18:44:03;2.80;95.50
4755;DHT22;2391;47.212;7.542;2022-12-16T18:46:48;2.80;95.40
4755;DHT22;2391;47.212;7.542;2022-12-16T18:49:33;2.70;95.30
4755;DHT22;2391;47.212;7.542;2022-12-16T18:52:18;2.70;95.30
4755;DHT22;2391;47.212;7.542;2022-12-16T18:55:04;2.60;95.30
4755;DHT22;2391;47.212;7.542;2022-12-16T18:57:49;2.50;95.10
4755;DHT22;2391;47.212;7.542;2022-12-16T19:00:34;2.40;95.20
4755;DHT22;2391;47.212;7.542;2022-12-16T19:03:18;2.20;94.90
4755;DHT22;2391;47.212;7.542;2022-12-16T19:06:03;2.20;95.40
4755;DHT22;2391;47.212;7.542;2022-12-16T19:08:48;2.20;95.30
4755;DHT22;2391;47.212;7.542;2022-12-16T19:11:33;2.20;95.10
4755;DHT22;2391;47.212;7.542;2022-12-16T19:14:17;2.20;95.00
4755;DHT22;2391;47.212;7.542;2022-12-16T19:17:02;2.10;94.90
4755;DHT22;2391;47.212;7.542;2022-12-16T19:19:47;2.00;94.90
4755;DHT22;2391;47.212;7.542;2022-12-16T19:22:31;2.00;95.10
4755;DHT22;2391;47.212;7.542;2022-12-16T19:25:16;2.00;95.00
4755;DHT22;2391;47.212;7.542;2022-12-16T19:28:00;2.00;94.90
4755;DHT22;2391;47.212;7.542;2022-12-16T19:30:55;2.00;94.90
4755;DHT22;2391;47.212;7.542;2022-12-16T19:33:43;2.00;94.70
4755;DHT22;2391;47.212;7.542;2022-12-16T19:36:28;2.00;94.90
4755;DHT22;2391;47.212;7.542;2022-12-16T19:39:12;2.10;94.50
4755;DHT22;2391;47.212;7.542;2022-12-16T19:41:57;2.10;94.50
4755;DHT22;2391;47.212;7.542;2022-12-16T19:44:42;2.20;94.40
4755;DHT22;2391;47.212;7.542;2022-12-16T19:47:26;2.20;94.50
4755;DHT22;2391;47.212;7.542;2022-12-16T19:50:11;2.30;94.20
4755;DHT22;2391;47.212;7.542;2022-12-16T19:52:55;2.40;94.30
4755;DHT22;2391;47.212;7.542;2022-12-16T19:55:40;2.50;94.20
4755;DHT22;2391;47.212;7.542;2022-12-16T19:58:25;2.40;93.50
4755;DHT22;2391;47.212;7.542;2022-12-16T20:01:10;2.20;93.50
4755;DHT22;2391;47.212;7.542;2022-12-16T20:03:53;2.10;93.50
4755;DHT22;2391;47.212;7.542;2022-12-16T20:06:38;2.00;93.30
4755;DHT22;2391;47.212;7.542;2022-12-16T20:09:26;1.90;93.40